»·PEaware :: SGL483 KYKM-S31

SGL483 :: KYKM-S31

FLIGHT INFORMATION

Flight Status: Arrived
Operator: Unknown
More flights by this operator :: More flights under this callsign
Pilot: Matthew M. (8235)
Aircraft: ILYUSHIN IL-76/78/82 GAJARAJ
(IL76)
More flights by this aircraft type
Origin: KYKM Yakima Air Term/Mcallister
United States
Destination: S31 Lopez Island
United States
More flights between these airports :: More routes between these airports
Route: +NACHES4 YKM V4 WATTR
File this flight plan on PilotEdge
Remarks:
Altitude:
(Current/Filed)
16,000ft
Speed:
(Current/Filed)
350kts
Departed: 14-Apr-20 12:51 PM
Arrived: 14-Apr-20 01:29 PM
Distance/Time
Traveled:
150nm/0:37
Distance/Time
To Go:
Arrived

Flight Plot

Page will automatically refresh every two minutes.


Map Options




Map Legend


Flown Route
Filed Route
Departure Airport
Arrival Airport
Navaid (VOR, NDB)
Fix

Horizontal Profiles

Position Reports

Time Latitude Longitude Heading Altitude Ground
Speed
14-Apr-20 11:57 46.571979 -120.549897 180 1080ft 0kts
14-Apr-20 11:59 46.571979 -120.549897 180 1080ft 0kts
14-Apr-20 12:00 46.571979 -120.549897 180 1080ft 0kts
14-Apr-20 12:01 46.571979 -120.549897 180 1080ft 0kts
14-Apr-20 12:02 46.571979 -120.549897 180 1080ft 0kts
14-Apr-20 12:03 46.571979 -120.549897 180 1080ft 0kts
14-Apr-20 12:04 46.571979 -120.549897 180 1080ft 0kts
14-Apr-20 12:05 46.571979 -120.549897 180 1080ft 0kts
14-Apr-20 12:06 46.571979 -120.549897 180 1080ft 0kts
14-Apr-20 12:07 46.571979 -120.549897 180 1080ft 0kts
14-Apr-20 12:08 46.571979 -120.549897 180 1080ft 0kts
14-Apr-20 12:09 46.571979 -120.549897 180 1080ft 0kts
14-Apr-20 12:10 46.571979 -120.549897 180 1080ft 0kts
14-Apr-20 12:11 46.571979 -120.549897 180 1080ft 0kts
14-Apr-20 12:12 46.571979 -120.549897 180 1080ft 0kts
14-Apr-20 12:13 46.571979 -120.549897 180 1080ft 0kts
14-Apr-20 12:14 46.571979 -120.549897 180 1080ft 0kts
14-Apr-20 12:15 46.571979 -120.549897 180 1080ft 0kts
14-Apr-20 12:16 46.571979 -120.549897 180 1080ft 0kts
14-Apr-20 12:16 46.571979 -120.549897 180 1080ft 0kts
14-Apr-20 12:18 46.571979 -120.549897 180 1080ft 0kts
14-Apr-20 12:18 46.571979 -120.549897 180 1080ft 0kts
14-Apr-20 12:19 46.571979 -120.549897 180 1080ft 0kts
14-Apr-20 12:21 46.571979 -120.549897 180 1080ft 0kts
14-Apr-20 12:21 46.571979 -120.549897 180 1080ft 0kts
14-Apr-20 12:22 46.571979 -120.549897 180 1080ft 0kts
14-Apr-20 12:23 46.571979 -120.549897 180 1080ft 0kts
14-Apr-20 12:24 46.571979 -120.549897 180 1080ft 0kts
14-Apr-20 12:25 46.571979 -120.549897 180 1080ft 0kts
14-Apr-20 12:26 46.571979 -120.549897 180 1080ft 0kts
14-Apr-20 12:27 46.571979 -120.549897 180 1080ft 0kts
14-Apr-20 12:28 46.571979 -120.549897 180 1080ft 0kts
14-Apr-20 12:29 46.571979 -120.549897 180 1080ft 0kts
14-Apr-20 12:30 46.571979 -120.549897 180 1080ft 0kts
14-Apr-20 12:31 46.571979 -120.549897 180 1080ft 0kts
14-Apr-20 12:32 46.571979 -120.549897 180 1080ft 0kts
14-Apr-20 12:33 46.571979 -120.549897 180 1080ft 0kts
14-Apr-20 12:34 46.571979 -120.549897 180 1080ft 0kts
14-Apr-20 12:35 46.571979 -120.549897 180 1080ft 0kts
14-Apr-20 12:36 46.571979 -120.549897 180 1080ft 0kts
14-Apr-20 12:37 46.571979 -120.549897 180 1080ft 0kts
14-Apr-20 12:38 46.571979 -120.549897 180 1080ft 0kts
14-Apr-20 12:39 46.571979 -120.549897 180 1080ft 0kts
14-Apr-20 12:40 46.571979 -120.549897 180 1080ft 0kts
14-Apr-20 12:41 46.571979 -120.549897 180 1080ft 0kts
14-Apr-20 12:42 46.571979 -120.549897 180 1080ft 0kts
14-Apr-20 12:43 46.571979 -120.549897 180 1080ft 0kts
14-Apr-20 12:44 46.571979 -120.549897 180 1080ft 0kts
14-Apr-20 12:45 46.571441 -120.549902 167 1080ft 6kts
14-Apr-20 12:46 46.570312 -120.545898 108 1080ft 29kts
14-Apr-20 12:47 46.568082 -120.536998 107 1080ft 10kts
14-Apr-20 12:48 46.566828 -120.532115 110 1080ft 9kts
14-Apr-20 12:49 46.565544 -120.531788 286 1080ft 9kts
14-Apr-20 12:50 46.574199 -120.566049 289 1182ft 157kts
14-Apr-20 12:51 46.609416 -120.603139 334 2379ft 205kts
14-Apr-20 12:52 46.671690 -120.647405 334 4489ft 269kts
14-Apr-20 12:53 46.727577 -120.625253 86 7590ft 256kts
14-Apr-20 12:54 46.717849 -120.517691 94 9799ft 278kts
14-Apr-20 12:55 46.662480 -120.460869 204 10754ft 331kts
14-Apr-20 12:56 46.631768 -120.582730 274 11884ft 343kts
14-Apr-20 12:57 46.654204 -120.707947 314 12055ft 324kts
14-Apr-20 12:58 46.715566 -120.804464 316 13617ft 329kts
14-Apr-20 12:59 46.779190 -120.902421 317 15615ft 336kts
14-Apr-20 13:00 46.838311 -121.009835 308 16041ft 342kts
14-Apr-20 13:01 46.892026 -121.123643 308 16047ft 355kts
14-Apr-20 13:02 46.948406 -121.244321 307 16043ft 357kts
14-Apr-20 13:03 47.004182 -121.364305 307 16103ft 354kts
14-Apr-20 13:04 47.058738 -121.482143 307 16155ft 353kts
14-Apr-20 13:05 47.105364 -121.583258 307 16162ft 353kts
14-Apr-20 13:06 47.144545 -121.668506 306 16169ft 353kts
14-Apr-20 13:07 47.201335 -121.792523 306 16169ft 353kts
14-Apr-20 13:08 47.255592 -121.911536 306 16154ft 353kts
14-Apr-20 13:09 47.303427 -122.016895 306 16077ft 352kts
14-Apr-20 13:10 47.350619 -122.121230 306 15997ft 352kts
14-Apr-20 13:11 47.388379 -122.205001 306 15931ft 351kts
14-Apr-20 13:12 47.440859 -122.310775 327 15838ft 345kts
14-Apr-20 13:13 47.510922 -122.375725 329 16045ft 346kts
14-Apr-20 13:14 47.583307 -122.440523 330 16030ft 346kts
14-Apr-20 13:15 47.655381 -122.504781 330 16027ft 346kts
14-Apr-20 13:16 47.722862 -122.565053 330 16021ft 346kts
14-Apr-20 13:17 47.806983 -122.640432 330 16013ft 346kts
14-Apr-20 13:18 47.886785 -122.712202 329 16021ft 346kts
14-Apr-20 13:19 47.960400 -122.778639 329 15499ft 338kts
14-Apr-20 13:20 48.029798 -122.841477 329 14584ft 325kts
14-Apr-20 13:21 48.097356 -122.902897 329 13785ft 309kts
14-Apr-20 13:22 48.154321 -122.938002 353 12645ft 238kts
14-Apr-20 13:23 48.217240 -122.940085 356 9810ft 238kts
14-Apr-20 13:24 48.283042 -122.939656 356 6830ft 241kts
14-Apr-20 13:25 48.345276 -122.939089 356 4341ft 234kts
14-Apr-20 13:26 48.408868 -122.938511 358 2114ft 197kts
14-Apr-20 13:27 48.455589 -122.938059 0 932ft 146kts
14-Apr-20 13:28 48.487337 -122.937696 358 207ft 10kts
14-Apr-20 13:29 48.487035 -122.936894 147 204ft 3kts
14-Apr-20 13:30 48.486652 -122.936804 222 204ft 0kts
14-Apr-20 13:31 48.486652 -122.936804 222 204ft 0kts
14-Apr-20 13:32 48.486652 -122.936804 222 204ft 0kts
14-Apr-20 13:33 48.486652 -122.936804 222 204ft 0kts
14-Apr-20 13:34 48.486601 -122.937064 295 203ft 2kts

Navigation Log

Ident Type
Flight plan parsing failed, navigation log unavailable